createdAt,value
2023-05-23T00:02:16.734Z,45.53
2023-05-23T00:04:44.385Z,45.51
2023-05-23T00:07:11.620Z,45.35
2023-05-23T00:09:38.851Z,45.51
2023-05-23T00:12:07.074Z,45.92
2023-05-23T00:14:35.546Z,46.54
2023-05-23T00:17:02.931Z,46.86
2023-05-23T00:19:30.270Z,46.79
2023-05-23T00:21:58.590Z,47.10
2023-05-23T00:24:26.023Z,47.84
2023-05-23T00:26:53.270Z,48.39
2023-05-23T00:29:20.901Z,48.56
2023-05-23T00:31:48.075Z,49.52
2023-05-23T00:34:17.804Z,50.51
2023-05-23T00:36:47.899Z,51.84
2023-05-23T00:39:20.961Z,52.63
2023-05-23T00:41:53.155Z,52.39
2023-05-23T00:44:22.051Z,53.06
2023-05-23T00:46:56.724Z,54.33
2023-05-23T00:49:24.666Z,54.64
2023-05-23T00:51:52.661Z,54.46
2023-05-23T00:54:25.639Z,54.79
2023-05-23T00:56:53.512Z,55.18
2023-05-23T00:59:22.880Z,55.60
2023-05-23T01:01:52.985Z,55.06
2023-05-23T01:04:20.670Z,57.05
2023-05-23T01:06:49.104Z,57.14
2023-05-23T01:09:18.081Z,57.63
2023-05-23T01:12:25.427Z,57.44
2023-05-23T01:15:11.367Z,58.67
2023-05-23T01:18:10.855Z,59.27
2023-05-23T01:20:54.201Z,58.69
2023-05-23T01:23:36.436Z,59.26
2023-05-23T01:26:26.316Z,59.22
2023-05-23T01:29:10.204Z,59.06
2023-05-23T01:31:43.597Z,59.18
2023-05-23T01:34:15.106Z,59.45
2023-05-23T01:36:43.810Z,59.29
2023-05-23T01:39:12.055Z,59.09
2023-05-23T01:41:39.190Z,58.73
2023-05-23T01:44:06.354Z,58.57
2023-05-23T01:46:34.715Z,59.06
2023-05-23T01:49:04.452Z,59.61
2023-05-23T01:51:34.272Z,60.02
2023-05-23T01:54:02.369Z,59.78
2023-05-23T01:56:30.736Z,59.66
2023-05-23T01:58:58.720Z,60.25
2023-05-23T02:01:26.076Z,60.24
2023-05-23T02:03:53.694Z,59.76
2023-05-23T02:06:21.325Z,59.15
2023-05-23T02:08:48.388Z,59.52
2023-05-23T02:11:16.090Z,60.14
2023-05-23T02:13:43.207Z,60.49
2023-05-23T02:16:10.638Z,60.56
2023-05-23T02:18:38.391Z,60.65
2023-05-23T02:21:06.654Z,60.99
2023-05-23T02:23:33.915Z,60.93
2023-05-23T02:26:01.033Z,60.34
2023-05-23T02:28:28.220Z,60.54
2023-05-23T02:30:55.451Z,60.59
2023-05-23T02:33:22.837Z,60.18
2023-05-23T02:35:51.799Z,60.15
2023-05-23T02:38:20.769Z,60.83
2023-05-23T02:40:50.435Z,61.26
2023-05-23T02:43:17.992Z,61.07
2023-05-23T02:45:45.284Z,61.08
2023-05-23T02:48:12.500Z,61.37
2023-05-23T02:50:39.848Z,60.74
2023-05-23T02:53:07.216Z,61.16
2023-05-23T02:55:34.432Z,61.40
2023-05-23T02:58:01.585Z,61.77
2023-05-23T03:00:28.709Z,61.63
2023-05-23T03:02:58.222Z,61.41
2023-05-23T03:05:25.389Z,61.66
2023-05-23T03:07:52.512Z,61.50
2023-05-23T03:10:19.623Z,61.73
2023-05-23T03:12:47.415Z,61.88
2023-05-23T03:15:16.657Z,61.62
2023-05-23T03:17:44.978Z,61.38
2023-05-23T03:20:12.154Z,61.58
2023-05-23T03:22:39.439Z,61.21
2023-05-23T03:25:07.276Z,61.08
2023-05-23T03:27:34.437Z,61.05
2023-05-23T03:30:03.542Z,61.43
2023-05-23T03:32:30.766Z,61.68
2023-05-23T03:34:57.879Z,61.37
2023-05-23T03:37:25.007Z,61.54
2023-05-23T03:39:52.127Z,61.55
2023-05-23T03:42:19.487Z,61.10
2023-05-23T03:44:46.607Z,61.02
2023-05-23T03:47:13.732Z,60.99
2023-05-23T03:49:45.206Z,61.24
2023-05-23T03:52:12.723Z,61.21
2023-05-23T03:54:40.217Z,59.83
2023-05-23T03:57:08.440Z,59.81
2023-05-23T03:59:37.032Z,60.32
2023-05-23T04:02:07.840Z,59.87
2023-05-23T04:04:36.267Z,59.12
2023-05-23T04:07:05.643Z,58.39
2023-05-23T04:09:33.098Z,58.08
2023-05-23T04:12:01.108Z,57.60
2023-05-23T04:14:29.361Z,57.57
2023-05-23T04:16:59.064Z,58.09
2023-05-23T04:19:26.860Z,58.15
2023-05-23T04:21:54.138Z,57.93
2023-05-23T04:24:21.487Z,57.93
2023-05-23T04:26:49.785Z,57.94
2023-05-23T04:29:17.068Z,57.80
2023-05-23T04:31:46.019Z,58.03
2023-05-23T04:34:13.576Z,57.23
2023-05-23T04:36:40.730Z,57.23
2023-05-23T04:39:08.528Z,57.16
2023-05-23T04:41:41.273Z,56.92
2023-05-23T04:44:30.340Z,56.80
2023-05-23T04:47:12.300Z,56.63
2023-05-23T04:49:57.580Z,56.31
2023-05-23T04:52:25.565Z,56.42
2023-05-23T04:54:54.207Z,56.94
2023-05-23T04:57:22.186Z,56.67
2023-05-23T04:59:49.469Z,56.35
2023-05-23T05:02:16.602Z,56.13
2023-05-23T05:04:44.614Z,55.08
2023-05-23T05:07:11.901Z,55.11
2023-05-23T05:09:39.657Z,53.76
2023-05-23T05:12:08.017Z,53.81
2023-05-23T05:14:35.218Z,55.04
2023-05-23T05:17:02.928Z,54.46
2023-05-23T05:19:38.085Z,53.21
2023-05-23T05:22:08.083Z,52.10
2023-05-23T05:24:35.601Z,52.29
2023-05-23T05:27:03.529Z,51.40
2023-05-23T05:29:31.368Z,52.12
2023-05-23T05:31:58.736Z,52.76
2023-05-23T05:34:26.990Z,52.58
2023-05-23T05:36:56.478Z,52.33
2023-05-23T05:39:26.489Z,51.98
2023-05-23T05:41:54.408Z,51.64
2023-05-23T05:44:21.597Z,52.49
2023-05-23T05:46:48.979Z,53.58
2023-05-23T05:49:16.288Z,53.17
2023-05-23T05:51:45.734Z,53.40
2023-05-23T05:54:13.190Z,53.93
2023-05-23T05:56:40.601Z,52.34
2023-05-23T05:59:07.905Z,51.89
2023-05-23T06:01:35.916Z,52.74
2023-05-23T06:04:03.369Z,52.16
2023-05-23T06:06:32.342Z,51.39
2023-05-23T06:08:59.968Z,53.00
2023-05-23T06:11:27.091Z,52.48
2023-05-23T06:13:54.290Z,53.58
2023-05-23T06:16:21.558Z,54.54
2023-05-23T06:18:49.011Z,54.81
2023-05-23T06:21:16.487Z,54.66
2023-05-23T06:23:43.854Z,55.38
2023-05-23T06:26:12.282Z,55.22
2023-05-23T06:28:42.178Z,54.79
2023-05-23T06:31:12.660Z,53.90
2023-05-23T06:33:39.853Z,53.95
2023-05-23T06:36:07.296Z,54.14
2023-05-23T06:38:34.403Z,53.56
2023-05-23T06:41:02.411Z,53.85
2023-05-23T06:43:30.500Z,53.66
2023-05-23T06:46:12.964Z,52.96
2023-05-23T06:48:40.122Z,52.98
2023-05-23T06:51:07.452Z,52.57
2023-05-23T06:53:34.570Z,53.23
2023-05-23T06:56:01.817Z,51.55
2023-05-23T06:58:31.747Z,51.66
2023-05-23T07:01:00.925Z,50.62
2023-05-23T07:03:33.361Z,51.53
2023-05-23T07:06:05.150Z,49.75
2023-05-23T07:08:32.526Z,50.20
2023-05-23T07:11:01.472Z,49.99
2023-05-23T07:13:32.921Z,49.22
2023-05-23T07:16:00.654Z,48.10
2023-05-23T07:18:27.858Z,48.88
2023-05-23T07:20:57.296Z,49.58
2023-05-23T07:23:25.930Z,49.21
2023-05-23T07:26:01.700Z,50.17
2023-05-23T07:28:38.061Z,50.55
2023-05-23T07:31:05.359Z,48.87
2023-05-23T07:33:34.579Z,47.90
2023-05-23T07:36:04.453Z,48.89
2023-05-23T07:38:31.602Z,49.14
2023-05-23T07:41:10.515Z,49.79
2023-05-23T07:43:38.640Z,48.51
2023-05-23T07:46:06.250Z,50.38
2023-05-23T07:48:33.791Z,50.61
2023-05-23T07:51:01.302Z,49.94
2023-05-23T07:53:29.217Z,50.15
2023-05-23T07:55:56.884Z,49.69
2023-05-23T07:58:27.372Z,49.13
2023-05-23T08:00:54.443Z,48.76
2023-05-23T08:04:00.222Z,48.91
2023-05-23T08:06:34.569Z,47.58
2023-05-23T08:09:06.819Z,46.70
2023-05-23T08:11:38.029Z,47.92
2023-05-23T08:14:06.504Z,48.62
2023-05-23T08:16:39.547Z,48.40
2023-05-23T08:19:14.855Z,47.51
2023-05-23T08:21:42.653Z,48.17
2023-05-23T08:24:09.867Z,47.51
2023-05-23T08:26:39.656Z,46.94
2023-05-23T08:29:10.629Z,46.84
2023-05-23T08:31:38.045Z,48.03
2023-05-23T08:34:08.091Z,47.57
2023-05-23T08:36:37.471Z,46.27
2023-05-23T08:39:07.018Z,46.26
2023-05-23T08:41:40.100Z,46.53
2023-05-23T08:44:11.227Z,46.54
2023-05-23T08:46:47.667Z,46.92
2023-05-23T08:49:29.142Z,48.06
2023-05-23T08:52:01.994Z,47.59
2023-05-23T08:54:32.677Z,47.99
2023-05-23T08:57:01.001Z,48.55
2023-05-23T08:59:30.458Z,48.24
2023-05-23T09:01:58.556Z,48.49
2023-05-23T09:04:26.436Z,47.47
2023-05-23T09:07:01.456Z,47.68
2023-05-23T09:09:30.192Z,47.89
2023-05-23T09:12:00.448Z,48.91
2023-05-23T09:14:32.073Z,49.71
2023-05-23T09:17:04.809Z,49.46
2023-05-23T09:19:33.373Z,48.76
2023-05-23T09:22:13.582Z,49.86
2023-05-23T09:24:57.434Z,50.54
2023-05-23T09:27:24.990Z,50.76
2023-05-23T09:29:52.348Z,51.06
2023-05-23T09:32:21.451Z,51.65
2023-05-23T09:35:04.121Z,51.36
2023-05-23T09:37:40.960Z,52.69
2023-05-23T09:40:14.747Z,53.10
2023-05-23T09:42:53.291Z,53.11
2023-05-23T09:45:20.463Z,52.86
2023-05-23T09:47:54.157Z,50.90
2023-05-23T09:50:22.942Z,51.60
2023-05-23T09:52:53.892Z,51.11
2023-05-23T09:55:21.342Z,49.80
2023-05-23T09:57:56.658Z,51.01
2023-05-23T10:00:25.415Z,50.54
2023-05-23T10:03:01.779Z,51.87
2023-05-23T10:05:38.707Z,51.25
2023-05-23T10:08:12.127Z,49.89
2023-05-23T10:11:14.494Z,48.46
2023-05-23T10:13:44.865Z,46.15
2023-05-23T10:16:57.013Z,46.18
2023-05-23T10:20:13.546Z,45.83
2023-05-23T10:22:41.324Z,43.91
2023-05-23T10:25:13.616Z,44.46
2023-05-23T10:27:41.435Z,44.25
2023-05-23T10:30:09.914Z,43.56
2023-05-23T10:32:39.746Z,41.51
2023-05-23T10:35:19.354Z,43.74
2023-05-23T10:38:28.562Z,44.55
2023-05-23T10:41:24.607Z,44.93
2023-05-23T10:44:27.204Z,45.60
2023-05-23T10:47:02.288Z,46.45
2023-05-23T10:49:52.198Z,44.82
2023-05-23T10:52:19.355Z,45.14
2023-05-23T10:54:53.381Z,44.79
2023-05-23T10:57:23.498Z,45.31
2023-05-23T10:59:51.954Z,44.62
2023-05-23T11:02:26.966Z,42.51
2023-05-23T11:05:22.814Z,43.19
2023-05-23T11:08:16.268Z,43.81
2023-05-23T11:11:05.100Z,44.01
2023-05-23T11:14:02.950Z,43.19
2023-05-23T11:16:41.024Z,42.77
2023-05-23T11:19:20.478Z,41.85
2023-05-23T11:21:53.449Z,42.10
2023-05-23T11:24:20.914Z,41.06
2023-05-23T11:27:00.743Z,42.39
2023-05-23T11:29:31.726Z,42.34
2023-05-23T11:31:59.032Z,42.30
2023-05-23T11:34:26.677Z,41.62
2023-05-23T11:36:55.789Z,41.20
2023-05-23T11:39:23.750Z,43.46
2023-05-23T11:42:02.246Z,44.11
2023-05-23T11:44:30.012Z,43.42
2023-05-23T11:47:06.278Z,43.45
2023-05-23T11:49:38.124Z,42.18
2023-05-23T11:52:09.402Z,40.75
2023-05-23T11:54:36.678Z,39.47
2023-05-23T11:57:05.152Z,38.13
2023-05-23T11:59:32.255Z,37.20
2023-05-23T12:01:59.359Z,37.67
2023-05-23T12:04:27.280Z,37.59
2023-05-23T12:06:54.670Z,35.25
2023-05-23T12:09:21.878Z,33.92
2023-05-23T12:11:49.856Z,33.77
2023-05-23T12:14:18.195Z,33.91
2023-05-23T12:16:49.298Z,33.02
2023-05-23T12:19:19.680Z,36.83
2023-05-23T12:21:49.165Z,34.78
2023-05-23T12:24:21.245Z,36.20
2023-05-23T12:26:58.555Z,36.77
2023-05-23T12:29:35.600Z,36.46
2023-05-23T12:32:05.462Z,37.60
2023-05-23T12:34:32.695Z,39.38
2023-05-23T12:37:17.963Z,40.64
2023-05-23T12:39:47.138Z,41.77
2023-05-23T12:42:14.350Z,43.12
2023-05-23T12:44:43.709Z,42.76
2023-05-23T12:47:11.053Z,42.67
2023-05-23T12:49:38.946Z,43.08
2023-05-23T12:52:07.469Z,44.48
2023-05-23T12:54:34.621Z,45.02
2023-05-23T12:57:01.799Z,46.33
2023-05-23T12:59:29.074Z,47.42
2023-05-23T13:01:56.251Z,49.20
2023-05-23T13:04:23.499Z,49.88
2023-05-23T13:06:50.747Z,49.54
2023-05-23T13:09:17.994Z,49.42
2023-05-23T13:11:45.303Z,49.46
2023-05-23T13:14:13.723Z,49.83
2023-05-23T13:16:40.918Z,50.37
2023-05-23T13:19:08.183Z,50.44
2023-05-23T13:21:35.586Z,50.74
2023-05-23T13:24:02.712Z,49.54
2023-05-23T13:26:29.759Z,49.29
2023-05-23T13:28:56.822Z,50.40
2023-05-23T13:31:26.089Z,51.64
2023-05-23T13:33:53.335Z,52.17
2023-05-23T13:36:20.522Z,52.97
2023-05-23T13:38:47.734Z,52.76
2023-05-23T13:41:14.927Z,53.07
2023-05-23T13:43:42.211Z,52.56
2023-05-23T13:46:09.362Z,52.92
2023-05-23T13:48:36.578Z,53.32
2023-05-23T13:51:03.899Z,53.83
2023-05-23T13:53:31.691Z,53.58
2023-05-23T13:55:58.855Z,54.33
2023-05-23T13:58:26.190Z,55.55
2023-05-23T14:00:53.463Z,54.42
2023-05-23T14:03:20.925Z,55.21
2023-05-23T14:05:48.325Z,53.86
2023-05-23T14:08:15.710Z,52.56
2023-05-23T14:10:43.211Z,52.30
2023-05-23T14:13:10.995Z,52.51
2023-05-23T14:15:38.595Z,52.98
2023-05-23T14:18:06.009Z,53.26
2023-05-23T14:20:33.363Z,52.26
2023-05-23T14:23:00.535Z,52.53
2023-05-23T14:25:27.765Z,52.27
2023-05-23T14:27:54.923Z,51.96
2023-05-23T14:30:22.032Z,52.45
2023-05-23T14:32:49.925Z,52.71
2023-05-23T14:35:17.334Z,52.98
2023-05-23T14:37:46.722Z,52.37
2023-05-23T14:40:15.228Z,52.80
2023-05-23T14:42:42.646Z,52.94
2023-05-23T14:45:10.316Z,52.60
2023-05-23T14:47:37.864Z,54.48
2023-05-23T14:50:05.598Z,55.89
2023-05-23T14:52:32.706Z,55.16
2023-05-23T14:55:01.165Z,54.47
2023-05-23T14:57:28.738Z,53.38
2023-05-23T14:59:56.617Z,52.89
2023-05-23T15:02:23.951Z,51.84
2023-05-23T15:04:51.104Z,52.29
2023-05-23T15:07:18.457Z,51.49
2023-05-23T15:09:46.192Z,53.36
2023-05-23T15:12:15.297Z,52.38
2023-05-23T15:14:43.608Z,52.88
2023-05-23T15:17:13.044Z,52.87
2023-05-23T15:19:42.959Z,53.94
2023-05-23T15:22:18.726Z,54.59
2023-05-23T15:25:00.628Z,54.42
2023-05-23T15:27:27.722Z,53.08
2023-05-23T15:29:54.850Z,52.43
2023-05-23T15:32:22.354Z,52.61
2023-05-23T15:34:49.579Z,52.25
2023-05-23T15:37:17.656Z,52.59
2023-05-23T15:39:44.771Z,53.29
2023-05-23T15:42:11.984Z,54.06
2023-05-23T15:44:39.145Z,55.55
2023-05-23T15:47:06.292Z,56.06
2023-05-23T15:49:33.353Z,55.43
2023-05-23T15:52:00.804Z,55.57
2023-05-23T15:54:27.909Z,56.80
2023-05-23T15:56:54.993Z,56.38
2023-05-23T15:59:22.060Z,56.53
2023-05-23T16:01:49.188Z,57.28
2023-05-23T16:04:16.410Z,57.67
2023-05-23T16:06:43.602Z,57.62
2023-05-23T16:09:10.999Z,56.99
2023-05-23T16:11:38.077Z,57.52
2023-05-23T16:14:06.075Z,58.66
2023-05-23T16:16:33.211Z,59.82
2023-05-23T16:19:00.481Z,59.51
2023-05-23T16:21:27.532Z,61.57
2023-05-23T16:23:54.714Z,62.42
2023-05-23T16:26:21.890Z,63.74
2023-05-23T16:28:49.062Z,63.25
2023-05-23T16:31:16.910Z,63.54
2023-05-23T16:33:44.978Z,65.39
2023-05-23T16:36:12.106Z,66.27
2023-05-23T16:38:39.354Z,66.37
2023-05-23T16:41:06.434Z,66.29
2023-05-23T16:43:34.777Z,65.94
2023-05-23T16:46:02.151Z,65.86
2023-05-23T16:48:29.282Z,65.83
2023-05-23T16:50:57.856Z,66.34
2023-05-23T16:53:25.085Z,67.18
2023-05-23T16:55:52.439Z,67.83
2023-05-23T16:58:21.054Z,67.72
2023-05-23T17:00:48.819Z,67.41
2023-05-23T17:03:16.428Z,67.21
2023-05-23T17:05:44.290Z,66.86
2023-05-23T17:08:11.902Z,66.80
2023-05-23T17:10:39.117Z,67.63
2023-05-23T17:13:06.387Z,67.10
2023-05-23T17:15:33.526Z,67.73
2023-05-23T17:18:00.701Z,67.20
2023-05-23T17:20:28.167Z,67.83
2023-05-23T17:22:55.940Z,68.15
2023-05-23T17:25:23.182Z,68.38
2023-05-23T17:27:50.661Z,68.14
2023-05-23T17:30:18.692Z,68.91
2023-05-23T17:32:47.109Z,69.13
2023-05-23T17:35:14.565Z,69.42
2023-05-23T17:37:43.648Z,69.19
2023-05-23T17:40:12.463Z,69.28
2023-05-23T17:42:41.027Z,70.27
2023-05-23T17:45:09.917Z,70.12
2023-05-23T17:47:37.236Z,69.70
2023-05-23T17:50:06.350Z,69.42
2023-05-23T17:52:33.592Z,68.46
2023-05-23T17:55:01.257Z,68.25
2023-05-23T17:57:30.232Z,68.35
2023-05-23T17:59:58.332Z,68.05
2023-05-23T18:02:26.904Z,68.49
2023-05-23T18:04:55.031Z,67.76
2023-05-23T18:07:22.438Z,68.34
2023-05-23T18:09:50.371Z,68.58
2023-05-23T18:12:17.823Z,68.70
2023-05-23T18:14:45.690Z,68.35
2023-05-23T18:17:13.082Z,68.79
2023-05-23T18:19:40.598Z,70.05
2023-05-23T18:22:07.801Z,70.18
2023-05-23T18:24:34.847Z,70.67
2023-05-23T18:27:03.079Z,70.42
2023-05-23T18:29:30.365Z,70.36
2023-05-23T18:31:57.705Z,69.95
2023-05-23T18:34:26.482Z,70.29
2023-05-23T18:36:55.154Z,70.82
2023-05-23T18:39:22.271Z,70.58
2023-05-23T18:41:49.633Z,70.58
2023-05-23T18:44:20.095Z,71.18
2023-05-23T18:46:48.665Z,70.51
2023-05-23T18:49:16.117Z,70.50
2023-05-23T18:51:43.838Z,70.49
2023-05-23T18:54:11.589Z,69.56
2023-05-23T18:56:38.719Z,70.45
2023-05-23T18:59:05.903Z,70.72
2023-05-23T19:01:33.404Z,71.00
2023-05-23T19:04:00.625Z,70.21
2023-05-23T19:06:28.432Z,70.14
2023-05-23T19:08:55.620Z,70.18
2023-05-23T19:11:22.944Z,70.08
2023-05-23T19:13:50.540Z,69.34
2023-05-23T19:16:18.076Z,68.95
2023-05-23T19:18:45.811Z,68.76
2023-05-23T19:21:13.179Z,69.04
2023-05-23T19:23:40.705Z,69.31
2023-05-23T19:26:11.135Z,68.98
2023-05-23T19:28:41.329Z,69.01
2023-05-23T19:31:09.555Z,68.59
2023-05-23T19:33:37.029Z,68.06
2023-05-23T19:36:06.142Z,67.88
2023-05-23T19:38:34.192Z,67.49
2023-05-23T19:41:01.695Z,66.95
2023-05-23T19:43:29.335Z,65.91
2023-05-23T19:45:56.847Z,65.33
2023-05-23T19:48:24.099Z,65.64
2023-05-23T19:50:54.249Z,65.44
2023-05-23T19:53:22.976Z,65.00
2023-05-23T19:55:50.828Z,64.38
2023-05-23T19:58:18.721Z,64.32
2023-05-23T20:00:46.441Z,63.83
2023-05-23T20:03:13.932Z,63.89
2023-05-23T20:05:41.296Z,64.24
2023-05-23T20:08:09.173Z,63.15
2023-05-23T20:10:40.180Z,62.81
2023-05-23T20:13:07.776Z,62.44
2023-05-23T20:15:40.023Z,62.56
2023-05-23T20:18:08.535Z,63.47
2023-05-23T20:20:36.200Z,63.94
2023-05-23T20:23:03.867Z,63.77
2023-05-23T20:25:31.677Z,63.46
2023-05-23T20:27:58.940Z,63.71
2023-05-23T20:30:26.428Z,63.93
2023-05-23T20:32:54.596Z,63.59
2023-05-23T20:35:22.848Z,63.94
2023-05-23T20:37:53.729Z,63.64
2023-05-23T20:40:22.673Z,63.40
2023-05-23T20:42:50.162Z,62.44
2023-05-23T20:45:17.567Z,62.92
2023-05-23T20:47:44.933Z,63.45
2023-05-23T20:50:12.803Z,63.31
2023-05-23T20:52:43.073Z,63.60
2023-05-23T20:55:10.895Z,62.89
2023-05-23T20:57:38.570Z,62.87
2023-05-23T21:00:11.013Z,62.66
2023-05-23T21:02:42.893Z,62.23
2023-05-23T21:05:11.909Z,63.07
2023-05-23T21:07:39.569Z,62.76
2023-05-23T21:10:07.290Z,63.06
2023-05-23T21:12:34.835Z,62.33
2023-05-23T21:15:02.044Z,62.15
2023-05-23T21:17:29.158Z,61.81
2023-05-23T21:19:56.334Z,62.12
2023-05-23T21:22:23.559Z,61.98
2023-05-23T21:24:50.955Z,62.03
2023-05-23T21:27:18.088Z,62.20
2023-05-23T21:29:46.982Z,61.76
2023-05-23T21:32:14.260Z,61.46
2023-05-23T21:34:41.654Z,61.08
2023-05-23T21:37:09.246Z,61.07
2023-05-23T21:39:50.016Z,61.43
2023-05-23T21:42:19.141Z,61.95
2023-05-23T21:44:49.521Z,61.65
2023-05-23T21:47:17.199Z,60.97
2023-05-23T21:49:44.439Z,60.60
2023-05-23T21:52:11.583Z,61.16
2023-05-23T21:54:38.736Z,61.44
2023-05-23T21:57:06.135Z,60.49
2023-05-23T21:59:33.400Z,60.25
2023-05-23T22:02:01.088Z,60.17
2023-05-23T22:04:36.742Z,60.25
2023-05-23T22:07:04.051Z,59.76
2023-05-23T22:09:31.269Z,59.66
2023-05-23T22:11:58.390Z,59.29
2023-05-23T22:14:28.356Z,59.38
2023-05-23T22:16:56.212Z,59.14
2023-05-23T22:19:26.222Z,59.42
2023-05-23T22:21:55.635Z,59.31
2023-05-23T22:24:22.782Z,59.09
2023-05-23T22:26:52.161Z,59.09
2023-05-23T22:29:21.793Z,59.02
2023-05-23T22:31:49.018Z,58.64
2023-05-23T22:34:16.269Z,58.52
2023-05-23T22:36:43.345Z,58.55
2023-05-23T22:39:10.443Z,58.44
2023-05-23T22:41:37.680Z,58.50
2023-05-23T22:44:04.845Z,58.26
2023-05-23T22:46:32.106Z,57.95
2023-05-23T22:49:00.409Z,57.75
2023-05-23T22:51:27.626Z,57.48
2023-05-23T22:53:54.724Z,57.08
2023-05-23T22:56:22.113Z,57.17
2023-05-23T22:58:49.202Z,57.44
2023-05-23T23:01:16.435Z,57.83
2023-05-23T23:03:43.636Z,58.15
2023-05-23T23:06:11.075Z,57.77
2023-05-23T23:08:38.399Z,57.72
2023-05-23T23:11:05.680Z,57.02
2023-05-23T23:13:32.752Z,57.19
2023-05-23T23:15:59.879Z,56.76
2023-05-23T23:18:27.060Z,56.36
2023-05-23T23:20:56.790Z,55.85
2023-05-23T23:23:24.062Z,55.50
2023-05-23T23:25:52.364Z,54.88
2023-05-23T23:28:20.802Z,54.24
2023-05-23T23:30:48.157Z,54.46
2023-05-23T23:33:16.050Z,55.01
2023-05-23T23:35:45.603Z,54.91
2023-05-23T23:38:12.829Z,54.85
2023-05-23T23:40:40.141Z,55.19
2023-05-23T23:43:07.388Z,54.93
2023-05-23T23:45:34.464Z,54.57
2023-05-23T23:48:01.588Z,54.56
2023-05-23T23:50:28.743Z,54.78
2023-05-23T23:52:57.982Z,53.81
2023-05-23T23:55:25.081Z,54.06
2023-05-23T23:57:52.251Z,54.12
